sensor_id;sensor_type;location;lat;lon;timestamp;temperature;humidity
11894;DHT22;6006;49.696;8.662;2023-02-28T00:01:30;-1.70;1.00
11894;DHT22;6006;49.696;8.662;2023-02-28T00:03:57;-1.70;1.00
11894;DHT22;6006;49.696;8.662;2023-02-28T00:06:24;-1.70;30.50
11894;DHT22;6006;49.696;8.662;2023-02-28T00:08:51;-1.70;99.90
11894;DHT22;6006;49.696;8.662;2023-02-28T00:11:18;-1.70;1.00
11894;DHT22;6006;49.696;8.662;2023-02-28T00:13:47;-1.80;1.00
11894;DHT22;6006;49.696;8.662;2023-02-28T00:16:18;-1.80;1.00
11894;DHT22;6006;49.696;8.662;2023-02-28T00:18:46;-1.80;1.00
11894;DHT22;6006;49.696;8.662;2023-02-28T00:21:14;-1.90;1.00
11894;DHT22;6006;49.696;8.662;2023-02-28T00:23:41;-1.90;99.90
11894;DHT22;6006;49.696;8.662;2023-02-28T00:26:09;-2.00;1.00
11894;DHT22;6006;49.696;8.662;2023-02-28T00:28:36;-2.00;1.00
11894;DHT22;6006;49.696;8.662;2023-02-28T00:31:03;-1.90;1.00
11894;DHT22;6006;49.696;8.662;2023-02-28T00:33:31;-1.80;1.00
11894;DHT22;6006;49.696;8.662;2023-02-28T00:36:06;-1.80;1.00
11894;DHT22;6006;49.696;8.662;2023-02-28T00:38:33;-1.70;99.90
11894;DHT22;6006;49.696;8.662;2023-02-28T00:41:01;-1.70;99.90
11894;DHT22;6006;49.696;8.662;2023-02-28T00:43:31;-1.80;99.90
11894;DHT22;6006;49.696;8.662;2023-02-28T00:45:58;-1.80;99.90
11894;DHT22;6006;49.696;8.662;2023-02-28T00:48:25;-1.80;99.90
11894;DHT22;6006;49.696;8.662;2023-02-28T00:50:53;-1.80;99.90
11894;DHT22;6006;49.696;8.662;2023-02-28T00:53:20;-1.80;99.90
11894;DHT22;6006;49.696;8.662;2023-02-28T00:55:48;-1.90;99.90
11894;DHT22;6006;49.696;8.662;2023-02-28T00:58:15;-1.80;1.00
11894;DHT22;6006;49.696;8.662;2023-02-28T01:00:41;-1.80;1.00
11894;DHT22;6006;49.696;8.662;2023-02-28T01:03:08;-1.80;99.90
11894;DHT22;6006;49.696;8.662;2023-02-28T01:05:35;-1.70;99.90
11894;DHT22;6006;49.696;8.662;2023-02-28T01:08:04;-1.70;99.90
11894;DHT22;6006;49.696;8.662;2023-02-28T01:10:31;-1.60;99.90
11894;DHT22;6006;49.696;8.662;2023-02-28T01:12:58;-1.60;99.90
11894;DHT22;6006;49.696;8.662;2023-02-28T01:15:25;-1.60;99.90
11894;DHT22;6006;49.696;8.662;2023-02-28T01:17:52;-1.60;13.90
11894;DHT22;6006;49.696;8.662;2023-02-28T01:20:19;-1.50;61.40
11894;DHT22;6006;49.696;8.662;2023-02-28T01:22:46;-1.50;1.00
11894;DHT22;6006;49.696;8.662;2023-02-28T01:25:14;-1.50;1.00
11894;DHT22;6006;49.696;8.662;2023-02-28T01:27:41;-1.40;1.00
11894;DHT22;6006;49.696;8.662;2023-02-28T01:30:10;-1.40;1.00
11894;DHT22;6006;49.696;8.662;2023-02-28T01:32:37;-1.40;1.00
11894;DHT22;6006;49.696;8.662;2023-02-28T01:35:04;-1.40;1.00
11894;DHT22;6006;49.696;8.662;2023-02-28T01:37:31;-1.40;1.00
11894;DHT22;6006;49.696;8.662;2023-02-28T01:39:58;-1.40;1.00
11894;DHT22;6006;49.696;8.662;2023-02-28T01:42:26;-1.50;1.00
11894;DHT22;6006;49.696;8.662;2023-02-28T01:45:17;-1.50;11.10
11894;DHT22;6006;49.696;8.662;2023-02-28T01:47:45;-1.50;33.80
11894;DHT22;6006;49.696;8.662;2023-02-28T01:50:15;-1.60;50.10
11894;DHT22;6006;49.696;8.662;2023-02-28T01:52:43;-1.60;99.90
11894;DHT22;6006;49.696;8.662;2023-02-28T01:55:11;-1.60;99.90
11894;DHT22;6006;49.696;8.662;2023-02-28T01:57:43;-1.60;99.90
11894;DHT22;6006;49.696;8.662;2023-02-28T02:00:13;-1.60;99.90
11894;DHT22;6006;49.696;8.662;2023-02-28T02:02:42;-1.60;99.90
11894;DHT22;6006;49.696;8.662;2023-02-28T02:05:12;-1.60;99.90
11894;DHT22;6006;49.696;8.662;2023-02-28T02:07:42;-1.70;99.90
11894;DHT22;6006;49.696;8.662;2023-02-28T02:10:12;-1.70;99.90
11894;DHT22;6006;49.696;8.662;2023-02-28T02:16:15;-1.70;99.90
11894;DHT22;6006;49.696;8.662;2023-02-28T02:18:47;-1.70;99.90
11894;DHT22;6006;49.696;8.662;2023-02-28T02:21:35;-1.70;99.90
11894;DHT22;6006;49.696;8.662;2023-02-28T02:24:28;-1.70;99.90
11894;DHT22;6006;49.696;8.662;2023-02-28T02:27:08;-1.80;1.00
11894;DHT22;6006;49.696;8.662;2023-02-28T02:29:56;-1.80;1.00
11894;DHT22;6006;49.696;8.662;2023-02-28T02:32:47;-1.80;1.00
11894;DHT22;6006;49.696;8.662;2023-02-28T02:35:25;-1.80;1.00
11894;DHT22;6006;49.696;8.662;2023-02-28T02:37:59;-1.90;1.00
11894;DHT22;6006;49.696;8.662;2023-02-28T02:40:33;-1.90;1.00
11894;DHT22;6006;49.696;8.662;2023-02-28T02:43:05;-1.90;1.00
11894;DHT22;6006;49.696;8.662;2023-02-28T02:45:36;-1.90;1.00
11894;DHT22;6006;49.696;8.662;2023-02-28T02:48:07;-1.90;1.00
11894;DHT22;6006;49.696;8.662;2023-02-28T02:50:38;-2.00;1.00
11894;DHT22;6006;49.696;8.662;2023-02-28T02:53:07;-2.00;99.90
11894;DHT22;6006;49.696;8.662;2023-02-28T02:55:38;-2.00;99.90
11894;DHT22;6006;49.696;8.662;2023-02-28T02:58:10;-2.00;99.90
11894;DHT22;6006;49.696;8.662;2023-02-28T03:00:42;-2.00;99.90
11894;DHT22;6006;49.696;8.662;2023-02-28T03:03:11;-2.00;99.90
11894;DHT22;6006;49.696;8.662;2023-02-28T03:05:44;-2.00;99.90
11894;DHT22;6006;49.696;8.662;2023-02-28T03:08:13;-2.00;99.90
11894;DHT22;6006;49.696;8.662;2023-02-28T03:10:41;-2.00;99.90
11894;DHT22;6006;49.696;8.662;2023-02-28T03:13:39;-2.00;99.90
11894;DHT22;6006;49.696;8.662;2023-02-28T03:16:26;-2.10;99.90
11894;DHT22;6006;49.696;8.662;2023-02-28T03:19:01;-2.10;99.90
11894;DHT22;6006;49.696;8.662;2023-02-28T03:21:34;-2.10;1.00
11894;DHT22;6006;49.696;8.662;2023-02-28T03:24:06;-2.20;1.00
11894;DHT22;6006;49.696;8.662;2023-02-28T03:26:40;-2.20;1.00
11894;DHT22;6006;49.696;8.662;2023-02-28T03:29:15;-2.20;99.90
11894;DHT22;6006;49.696;8.662;2023-02-28T03:31:46;-2.20;99.90
11894;DHT22;6006;49.696;8.662;2023-02-28T03:34:19;-2.20;99.90
11894;DHT22;6006;49.696;8.662;2023-02-28T03:36:51;-2.20;99.90
11894;DHT22;6006;49.696;8.662;2023-02-28T03:39:21;-2.20;99.90
11894;DHT22;6006;49.696;8.662;2023-02-28T03:41:52;-2.20;99.90
11894;DHT22;6006;49.696;8.662;2023-02-28T03:44:23;-2.20;99.90
11894;DHT22;6006;49.696;8.662;2023-02-28T03:46:56;-2.20;99.90
11894;DHT22;6006;49.696;8.662;2023-02-28T03:49:28;-2.20;99.90
11894;DHT22;6006;49.696;8.662;2023-02-28T03:52:00;-2.20;99.90
11894;DHT22;6006;49.696;8.662;2023-02-28T03:54:31;-2.10;99.90
11894;DHT22;6006;49.696;8.662;2023-02-28T03:57:04;-2.20;98.80
11894;DHT22;6006;49.696;8.662;2023-02-28T03:59:36;-2.20;99.90
11894;DHT22;6006;49.696;8.662;2023-02-28T04:02:03;-2.20;17.00
11894;DHT22;6006;49.696;8.662;2023-02-28T04:04:30;-2.20;1.00
11894;DHT22;6006;49.696;8.662;2023-02-28T04:07:04;-2.20;1.00
11894;DHT22;6006;49.696;8.662;2023-02-28T04:09:31;-2.10;1.00
11894;DHT22;6006;49.696;8.662;2023-02-28T04:11:58;-2.20;8.90
11894;DHT22;6006;49.696;8.662;2023-02-28T04:14:26;-2.20;48.60
11894;DHT22;6006;49.696;8.662;2023-02-28T04:16:53;-2.20;99.90
11894;DHT22;6006;49.696;8.662;2023-02-28T04:19:19;-2.20;99.90
11894;DHT22;6006;49.696;8.662;2023-02-28T04:21:48;-2.20;1.00
11894;DHT22;6006;49.696;8.662;2023-02-28T04:24:19;-2.20;45.30
11894;DHT22;6006;49.696;8.662;2023-02-28T04:26:48;-2.20;18.10
11894;DHT22;6006;49.696;8.662;2023-02-28T04:29:22;-2.20;1.00
11894;DHT22;6006;49.696;8.662;2023-02-28T04:31:49;-2.10;1.00
11894;DHT22;6006;49.696;8.662;2023-02-28T04:34:16;-2.20;1.00
11894;DHT22;6006;49.696;8.662;2023-02-28T04:36:44;-2.20;1.00
11894;DHT22;6006;49.696;8.662;2023-02-28T04:39:11;-2.20;1.00
11894;DHT22;6006;49.696;8.662;2023-02-28T04:41:40;-2.20;1.00
11894;DHT22;6006;49.696;8.662;2023-02-28T04:44:07;-2.20;1.00
11894;DHT22;6006;49.696;8.662;2023-02-28T04:46:34;-2.20;99.90
11894;DHT22;6006;49.696;8.662;2023-02-28T04:49:00;-2.30;14.20
11894;DHT22;6006;49.696;8.662;2023-02-28T04:51:27;-2.30;99.90
11894;DHT22;6006;49.696;8.662;2023-02-28T04:53:54;-2.30;99.90
11894;DHT22;6006;49.696;8.662;2023-02-28T04:56:21;-2.30;99.90
11894;DHT22;6006;49.696;8.662;2023-02-28T04:58:50;-2.30;99.90
11894;DHT22;6006;49.696;8.662;2023-02-28T05:01:21;-2.30;99.90
11894;DHT22;6006;49.696;8.662;2023-02-28T05:03:49;-2.40;1.00
11894;DHT22;6006;49.696;8.662;2023-02-28T05:06:17;-2.40;1.00
11894;DHT22;6006;49.696;8.662;2023-02-28T05:08:44;-2.40;1.00
11894;DHT22;6006;49.696;8.662;2023-02-28T05:11:16;-2.40;1.00
11894;DHT22;6006;49.696;8.662;2023-02-28T05:13:43;-2.40;1.00
11894;DHT22;6006;49.696;8.662;2023-02-28T05:16:11;-2.40;1.00
11894;DHT22;6006;49.696;8.662;2023-02-28T05:18:38;-2.40;1.00
11894;DHT22;6006;49.696;8.662;2023-02-28T05:21:05;-2.40;1.00
11894;DHT22;6006;49.696;8.662;2023-02-28T05:23:32;-2.40;1.00
11894;DHT22;6006;49.696;8.662;2023-02-28T05:25:59;-2.50;1.00
11894;DHT22;6006;49.696;8.662;2023-02-28T05:28:26;-2.50;1.00
11894;DHT22;6006;49.696;8.662;2023-02-28T05:30:53;-2.50;42.10
11894;DHT22;6006;49.696;8.662;2023-02-28T05:33:21;-2.50;99.90
11894;DHT22;6006;49.696;8.662;2023-02-28T05:35:48;-2.50;99.90
11894;DHT22;6006;49.696;8.662;2023-02-28T05:38:15;-2.50;1.00
11894;DHT22;6006;49.696;8.662;2023-02-28T05:40:43;-2.50;99.90
11894;DHT22;6006;49.696;8.662;2023-02-28T05:43:10;-2.50;1.00
11894;DHT22;6006;49.696;8.662;2023-02-28T05:45:38;-2.50;1.00
11894;DHT22;6006;49.696;8.662;2023-02-28T05:48:05;-2.50;1.00
11894;DHT22;6006;49.696;8.662;2023-02-28T05:50:33;-2.50;1.00
11894;DHT22;6006;49.696;8.662;2023-02-28T05:53:00;-2.40;1.00
11894;DHT22;6006;49.696;8.662;2023-02-28T05:55:27;-2.40;99.90
11894;DHT22;6006;49.696;8.662;2023-02-28T05:57:54;-2.30;99.90
11894;DHT22;6006;49.696;8.662;2023-02-28T06:00:22;-2.30;1.00
11894;DHT22;6006;49.696;8.662;2023-02-28T06:02:49;-2.30;1.00
11894;DHT22;6006;49.696;8.662;2023-02-28T06:05:17;-2.30;1.00
11894;DHT22;6006;49.696;8.662;2023-02-28T06:07:46;-2.30;1.00
11894;DHT22;6006;49.696;8.662;2023-02-28T06:10:13;-2.20;1.00
11894;DHT22;6006;49.696;8.662;2023-02-28T06:12:41;-2.20;99.90
11894;DHT22;6006;49.696;8.662;2023-02-28T06:15:11;-2.20;99.90
11894;DHT22;6006;49.696;8.662;2023-02-28T06:17:39;-2.20;99.90
11894;DHT22;6006;49.696;8.662;2023-02-28T06:20:08;-2.10;1.00
11894;DHT22;6006;49.696;8.662;2023-02-28T06:22:35;-2.10;1.00
11894;DHT22;6006;49.696;8.662;2023-02-28T06:25:04;-2.10;1.00
11894;DHT22;6006;49.696;8.662;2023-02-28T06:27:32;-2.10;1.00
11894;DHT22;6006;49.696;8.662;2023-02-28T06:29:59;-2.10;1.00
11894;DHT22;6006;49.696;8.662;2023-02-28T06:32:26;-2.10;1.00
11894;DHT22;6006;49.696;8.662;2023-02-28T06:34:53;-2.10;99.90
11894;DHT22;6006;49.696;8.662;2023-02-28T06:37:20;-2.10;1.00
11894;DHT22;6006;49.696;8.662;2023-02-28T06:39:47;-2.00;99.90
11894;DHT22;6006;49.696;8.662;2023-02-28T06:42:15;-2.00;99.90
11894;DHT22;6006;49.696;8.662;2023-02-28T06:44:42;-2.00;99.90
11894;DHT22;6006;49.696;8.662;2023-02-28T06:47:09;-1.90;1.00
11894;DHT22;6006;49.696;8.662;2023-02-28T06:49:36;-1.90;13.20
11894;DHT22;6006;49.696;8.662;2023-02-28T06:52:04;-1.90;1.00
11894;DHT22;6006;49.696;8.662;2023-02-28T06:54:31;-1.80;1.00
11894;DHT22;6006;49.696;8.662;2023-02-28T06:56:58;-1.80;1.00
11894;DHT22;6006;49.696;8.662;2023-02-28T06:59:27;-1.80;1.00
11894;DHT22;6006;49.696;8.662;2023-02-28T07:01:53;-1.80;1.00
11894;DHT22;6006;49.696;8.662;2023-02-28T07:04:21;-1.70;99.90
11894;DHT22;6006;49.696;8.662;2023-02-28T07:06:48;-1.70;99.90
11894;DHT22;6006;49.696;8.662;2023-02-28T07:09:15;-1.70;99.90
11894;DHT22;6006;49.696;8.662;2023-02-28T07:11:42;-1.60;99.90
11894;DHT22;6006;49.696;8.662;2023-02-28T07:14:09;-1.60;99.90
11894;DHT22;6006;49.696;8.662;2023-02-28T07:16:37;-1.40;52.50
11894;DHT22;6006;49.696;8.662;2023-02-28T07:19:04;-1.30;1.00
11894;DHT22;6006;49.696;8.662;2023-02-28T07:21:31;-1.30;1.00
11894;DHT22;6006;49.696;8.662;2023-02-28T07:23:58;-1.10;1.00
11894;DHT22;6006;49.696;8.662;2023-02-28T07:26:25;-0.90;99.90
11894;DHT22;6006;49.696;8.662;2023-02-28T07:28:51;-0.80;99.90
11894;DHT22;6006;49.696;8.662;2023-02-28T07:31:19;-0.60;99.90
11894;DHT22;6006;49.696;8.662;2023-02-28T07:33:47;-0.40;99.90
11894;DHT22;6006;49.696;8.662;2023-02-28T07:36:16;-0.20;62.00
11894;DHT22;6006;49.696;8.662;2023-02-28T07:38:45;0.00;1.00
11894;DHT22;6006;49.696;8.662;2023-02-28T07:41:14;0.20;1.00
11894;DHT22;6006;49.696;8.662;2023-02-28T07:43:41;0.30;1.00
11894;DHT22;6006;49.696;8.662;2023-02-28T07:46:10;0.60;1.00
11894;DHT22;6006;49.696;8.662;2023-02-28T07:48:37;0.70;1.00
11894;DHT22;6006;49.696;8.662;2023-02-28T07:51:06;0.70;1.00
11894;DHT22;6006;49.696;8.662;2023-02-28T07:53:33;0.80;1.00
11894;DHT22;6006;49.696;8.662;2023-02-28T07:56:01;0.90;1.00
11894;DHT22;6006;49.696;8.662;2023-02-28T07:58:29;0.90;1.00
11894;DHT22;6006;49.696;8.662;2023-02-28T08:00:56;1.00;1.00
11894;DHT22;6006;49.696;8.662;2023-02-28T08:03:24;1.10;1.00
11894;DHT22;6006;49.696;8.662;2023-02-28T08:05:51;1.20;1.00
11894;DHT22;6006;49.696;8.662;2023-02-28T08:08:20;1.20;1.00
11894;DHT22;6006;49.696;8.662;2023-02-28T08:10:47;1.20;1.00
11894;DHT22;6006;49.696;8.662;2023-02-28T08:13:14;1.10;1.00
11894;DHT22;6006;49.696;8.662;2023-02-28T08:15:41;1.00;1.00
11894;DHT22;6006;49.696;8.662;2023-02-28T08:18:09;0.90;1.00
11894;DHT22;6006;49.696;8.662;2023-02-28T08:20:35;0.80;1.00
11894;DHT22;6006;49.696;8.662;2023-02-28T08:23:02;0.90;1.00
11894;DHT22;6006;49.696;8.662;2023-02-28T08:25:31;0.90;1.00
11894;DHT22;6006;49.696;8.662;2023-02-28T08:27:58;0.90;1.00
11894;DHT22;6006;49.696;8.662;2023-02-28T08:30:24;1.00;1.00
11894;DHT22;6006;49.696;8.662;2023-02-28T08:32:51;1.00;1.00
11894;DHT22;6006;49.696;8.662;2023-02-28T08:35:18;1.00;1.00
11894;DHT22;6006;49.696;8.662;2023-02-28T08:37:47;1.10;1.00
11894;DHT22;6006;49.696;8.662;2023-02-28T08:40:14;1.00;1.00
11894;DHT22;6006;49.696;8.662;2023-02-28T08:42:45;1.10;1.00
11894;DHT22;6006;49.696;8.662;2023-02-28T08:45:12;1.20;1.00
11894;DHT22;6006;49.696;8.662;2023-02-28T08:47:40;1.30;1.00
11894;DHT22;6006;49.696;8.662;2023-02-28T08:50:07;1.40;1.00
11894;DHT22;6006;49.696;8.662;2023-02-28T08:52:35;1.60;1.00
11894;DHT22;6006;49.696;8.662;2023-02-28T08:55:02;1.60;1.00
11894;DHT22;6006;49.696;8.662;2023-02-28T08:57:28;1.70;1.00
11894;DHT22;6006;49.696;8.662;2023-02-28T08:59:57;1.90;1.00
11894;DHT22;6006;49.696;8.662;2023-02-28T09:02:24;2.00;1.00
11894;DHT22;6006;49.696;8.662;2023-02-28T09:04:50;2.10;1.00
11894;DHT22;6006;49.696;8.662;2023-02-28T09:07:17;2.20;1.00
11894;DHT22;6006;49.696;8.662;2023-02-28T09:09:44;2.20;1.00
11894;DHT22;6006;49.696;8.662;2023-02-28T09:12:20;2.30;1.00
11894;DHT22;6006;49.696;8.662;2023-02-28T09:14:47;2.40;99.90
11894;DHT22;6006;49.696;8.662;2023-02-28T09:17:16;2.40;99.90
11894;DHT22;6006;49.696;8.662;2023-02-28T09:19:43;2.60;99.90
11894;DHT22;6006;49.696;8.662;2023-02-28T09:22:10;2.80;99.90
11894;DHT22;6006;49.696;8.662;2023-02-28T09:24:38;2.90;99.90
11894;DHT22;6006;49.696;8.662;2023-02-28T09:27:05;3.10;99.90
11894;DHT22;6006;49.696;8.662;2023-02-28T09:29:33;3.30;99.90
11894;DHT22;6006;49.696;8.662;2023-02-28T09:32:01;3.50;99.90
11894;DHT22;6006;49.696;8.662;2023-02-28T09:34:29;3.60;99.90
11894;DHT22;6006;49.696;8.662;2023-02-28T09:36:56;3.60;99.90
11894;DHT22;6006;49.696;8.662;2023-02-28T09:39:23;3.60;99.90
11894;DHT22;6006;49.696;8.662;2023-02-28T09:41:53;3.80;99.90
11894;DHT22;6006;49.696;8.662;2023-02-28T09:44:25;3.80;99.90
11894;DHT22;6006;49.696;8.662;2023-02-28T09:46:56;3.80;99.90
11894;DHT22;6006;49.696;8.662;2023-02-28T09:49:33;3.90;99.90
11894;DHT22;6006;49.696;8.662;2023-02-28T09:52:04;3.90;99.90
11894;DHT22;6006;49.696;8.662;2023-02-28T09:54:35;3.80;99.90
11894;DHT22;6006;49.696;8.662;2023-02-28T09:57:07;3.80;99.90
11894;DHT22;6006;49.696;8.662;2023-02-28T10:03:03;3.90;99.90
11894;DHT22;6006;49.696;8.662;2023-02-28T10:05:35;4.30;99.90
11894;DHT22;6006;49.696;8.662;2023-02-28T10:08:10;3.90;99.90
11894;DHT22;6006;49.696;8.662;2023-02-28T10:10:41;3.80;99.90
11894;DHT22;6006;49.696;8.662;2023-02-28T10:13:23;4.10;99.90
11894;DHT22;6006;49.696;8.662;2023-02-28T10:15:54;4.40;99.90
11894;DHT22;6006;49.696;8.662;2023-02-28T10:18:25;4.60;99.90
11894;DHT22;6006;49.696;8.662;2023-02-28T10:20:55;4.80;99.90
11894;DHT22;6006;49.696;8.662;2023-02-28T10:23:26;4.70;99.90
11894;DHT22;6006;49.696;8.662;2023-02-28T10:25:59;4.70;99.90
11894;DHT22;6006;49.696;8.662;2023-02-28T10:28:29;5.10;99.90
11894;DHT22;6006;49.696;8.662;2023-02-28T10:30:57;5.40;99.90
11894;DHT22;6006;49.696;8.662;2023-02-28T10:33:28;5.50;99.90
11894;DHT22;6006;49.696;8.662;2023-02-28T10:35:57;5.70;99.90
11894;DHT22;6006;49.696;8.662;2023-02-28T10:38:26;5.40;99.90
11894;DHT22;6006;49.696;8.662;2023-02-28T10:41:04;5.40;99.90
11894;DHT22;6006;49.696;8.662;2023-02-28T10:43:31;5.40;99.90
11894;DHT22;6006;49.696;8.662;2023-02-28T10:46:01;5.50;99.90
11894;DHT22;6006;49.696;8.662;2023-02-28T10:48:37;5.80;99.90
11894;DHT22;6006;49.696;8.662;2023-02-28T10:51:07;5.30;99.90
11894;DHT22;6006;49.696;8.662;2023-02-28T10:53:39;5.50;99.90
11894;DHT22;6006;49.696;8.662;2023-02-28T10:56:16;5.70;99.90
11894;DHT22;6006;49.696;8.662;2023-02-28T10:58:51;5.90;99.90
11894;DHT22;6006;49.696;8.662;2023-02-28T11:01:20;6.10;99.90
11894;DHT22;6006;49.696;8.662;2023-02-28T11:03:48;6.10;99.90
11894;DHT22;6006;49.696;8.662;2023-02-28T11:06:19;5.20;99.90
11894;DHT22;6006;49.696;8.662;2023-02-28T11:08:50;4.80;99.90
11894;DHT22;6006;49.696;8.662;2023-02-28T11:11:19;5.30;99.90
11894;DHT22;6006;49.696;8.662;2023-02-28T11:13:47;5.50;99.90
11894;DHT22;6006;49.696;8.662;2023-02-28T11:16:15;6.00;99.90
11894;DHT22;6006;49.696;8.662;2023-02-28T11:18:46;6.10;99.90
11894;DHT22;6006;49.696;8.662;2023-02-28T11:21:22;6.10;99.90
11894;DHT22;6006;49.696;8.662;2023-02-28T11:23:52;6.50;99.90
11894;DHT22;6006;49.696;8.662;2023-02-28T11:26:38;7.20;99.90
11894;DHT22;6006;49.696;8.662;2023-02-28T11:29:21;6.80;99.90
11894;DHT22;6006;49.696;8.662;2023-02-28T11:32:05;6.90;99.90
11894;DHT22;6006;49.696;8.662;2023-02-28T11:34:35;6.70;99.90
11894;DHT22;6006;49.696;8.662;2023-02-28T11:37:08;7.00;99.90
11894;DHT22;6006;49.696;8.662;2023-02-28T11:39:36;7.30;99.90
11894;DHT22;6006;49.696;8.662;2023-02-28T11:42:28;7.00;99.90
11894;DHT22;6006;49.696;8.662;2023-02-28T11:45:07;6.80;99.90
11894;DHT22;6006;49.696;8.662;2023-02-28T11:47:42;6.70;99.90
11894;DHT22;6006;49.696;8.662;2023-02-28T11:50:31;6.70;99.90
11894;DHT22;6006;49.696;8.662;2023-02-28T11:53:10;6.70;99.90
11894;DHT22;6006;49.696;8.662;2023-02-28T11:55:43;6.70;99.90
11894;DHT22;6006;49.696;8.662;2023-02-28T11:58:21;6.90;99.90
11894;DHT22;6006;49.696;8.662;2023-02-28T12:01:08;7.20;99.90
11894;DHT22;6006;49.696;8.662;2023-02-28T12:03:43;7.00;99.90
11894;DHT22;6006;49.696;8.662;2023-02-28T12:06:18;6.80;99.90
11894;DHT22;6006;49.696;8.662;2023-02-28T12:09:05;7.40;99.90
11894;DHT22;6006;49.696;8.662;2023-02-28T12:11:44;7.70;99.90
11894;DHT22;6006;49.696;8.662;2023-02-28T12:14:35;7.50;99.90
11894;DHT22;6006;49.696;8.662;2023-02-28T12:17:17;7.40;99.90
11894;DHT22;6006;49.696;8.662;2023-02-28T12:19:55;7.90;99.90
11894;DHT22;6006;49.696;8.662;2023-02-28T12:22:30;8.10;99.90
11894;DHT22;6006;49.696;8.662;2023-02-28T12:25:25;7.40;99.90
11894;DHT22;6006;49.696;8.662;2023-02-28T12:27:58;7.10;99.90
11894;DHT22;6006;49.696;8.662;2023-02-28T12:30:28;6.70;99.90
11894;DHT22;6006;49.696;8.662;2023-02-28T12:33:02;6.70;99.90
11894;DHT22;6006;49.696;8.662;2023-02-28T12:35:35;7.00;99.90
11894;DHT22;6006;49.696;8.662;2023-02-28T12:38:06;6.90;99.90
11894;DHT22;6006;49.696;8.662;2023-02-28T12:40:43;7.30;99.90
11894;DHT22;6006;49.696;8.662;2023-02-28T12:43:13;7.10;99.90
11894;DHT22;6006;49.696;8.662;2023-02-28T12:45:44;7.10;99.90
11894;DHT22;6006;49.696;8.662;2023-02-28T12:48:17;7.20;99.90
11894;DHT22;6006;49.696;8.662;2023-02-28T12:50:45;7.80;99.90
11894;DHT22;6006;49.696;8.662;2023-02-28T12:53:20;7.90;99.90
11894;DHT22;6006;49.696;8.662;2023-02-28T12:55:55;8.00;99.90
11894;DHT22;6006;49.696;8.662;2023-02-28T12:58:29;8.00;99.90
11894;DHT22;6006;49.696;8.662;2023-02-28T13:01:13;8.00;99.90
11894;DHT22;6006;49.696;8.662;2023-02-28T13:03:51;8.20;99.90
11894;DHT22;6006;49.696;8.662;2023-02-28T13:06:43;7.30;99.90
11894;DHT22;6006;49.696;8.662;2023-02-28T13:09:16;7.10;99.90
11894;DHT22;6006;49.696;8.662;2023-02-28T13:11:47;6.90;99.90
11894;DHT22;6006;49.696;8.662;2023-02-28T13:14:26;7.20;99.90
11894;DHT22;6006;49.696;8.662;2023-02-28T13:17:02;7.30;99.90
11894;DHT22;6006;49.696;8.662;2023-02-28T13:19:31;7.30;99.90
11894;DHT22;6006;49.696;8.662;2023-02-28T13:21:59;7.30;99.90
11894;DHT22;6006;49.696;8.662;2023-02-28T13:24:45;7.60;99.90
11894;DHT22;6006;49.696;8.662;2023-02-28T13:27:39;7.80;99.90
11894;DHT22;6006;49.696;8.662;2023-02-28T13:33:22;7.80;99.90
11894;DHT22;6006;49.696;8.662;2023-02-28T13:36:10;8.00;99.90
11894;DHT22;6006;49.696;8.662;2023-02-28T13:38:40;7.80;99.90
11894;DHT22;6006;49.696;8.662;2023-02-28T13:41:42;7.90;99.90
11894;DHT22;6006;49.696;8.662;2023-02-28T13:44:12;8.00;99.90
11894;DHT22;6006;49.696;8.662;2023-02-28T13:49:39;7.90;99.90
11894;DHT22;6006;49.696;8.662;2023-02-28T13:52:11;7.30;99.90
11894;DHT22;6006;49.696;8.662;2023-02-28T13:55:09;7.60;99.90
11894;DHT22;6006;49.696;8.662;2023-02-28T13:57:49;7.20;99.90
11894;DHT22;6006;49.696;8.662;2023-02-28T14:00:31;7.10;99.90
11894;DHT22;6006;49.696;8.662;2023-02-28T14:03:20;7.00;99.90
11894;DHT22;6006;49.696;8.662;2023-02-28T14:06:08;7.10;99.90
11894;DHT22;6006;49.696;8.662;2023-02-28T14:08:37;7.20;99.90
11894;DHT22;6006;49.696;8.662;2023-02-28T14:11:25;7.10;99.90
11894;DHT22;6006;49.696;8.662;2023-02-28T14:13:52;7.00;99.90
11894;DHT22;6006;49.696;8.662;2023-02-28T14:16:23;6.80;99.90
11894;DHT22;6006;49.696;8.662;2023-02-28T14:18:56;6.90;99.90
11894;DHT22;6006;49.696;8.662;2023-02-28T14:21:26;7.00;99.90
11894;DHT22;6006;49.696;8.662;2023-02-28T14:24:25;6.70;99.90
11894;DHT22;6006;49.696;8.662;2023-02-28T14:27:12;6.70;99.90
11894;DHT22;6006;49.696;8.662;2023-02-28T14:33:22;6.60;99.90
11894;DHT22;6006;49.696;8.662;2023-02-28T14:36:06;6.80;99.90
11894;DHT22;6006;49.696;8.662;2023-02-28T14:38:39;6.70;99.90
11894;DHT22;6006;49.696;8.662;2023-02-28T14:41:22;6.50;99.90
11894;DHT22;6006;49.696;8.662;2023-02-28T14:43:55;6.40;99.90
11894;DHT22;6006;49.696;8.662;2023-02-28T14:46:25;6.30;99.90
11894;DHT22;6006;49.696;8.662;2023-02-28T14:48:54;6.30;99.90
11894;DHT22;6006;49.696;8.662;2023-02-28T14:51:23;6.60;99.90
11894;DHT22;6006;49.696;8.662;2023-02-28T14:53:52;6.40;99.90
11894;DHT22;6006;49.696;8.662;2023-02-28T14:56:22;6.50;99.90
11894;DHT22;6006;49.696;8.662;2023-02-28T14:58:54;6.40;99.90
11894;DHT22;6006;49.696;8.662;2023-02-28T15:01:23;6.30;99.90
11894;DHT22;6006;49.696;8.662;2023-02-28T15:04:00;6.50;99.90
11894;DHT22;6006;49.696;8.662;2023-02-28T15:06:28;6.50;99.90
11894;DHT22;6006;49.696;8.662;2023-02-28T15:09:10;6.50;99.90
11894;DHT22;6006;49.696;8.662;2023-02-28T15:11:38;6.30;99.90
11894;DHT22;6006;49.696;8.662;2023-02-28T15:14:06;6.40;99.90
11894;DHT22;6006;49.696;8.662;2023-02-28T15:16:36;6.40;99.90
11894;DHT22;6006;49.696;8.662;2023-02-28T15:19:11;6.60;99.90
11894;DHT22;6006;49.696;8.662;2023-02-28T15:21:43;6.80;99.90
11894;DHT22;6006;49.696;8.662;2023-02-28T15:24:15;6.80;99.90
11894;DHT22;6006;49.696;8.662;2023-02-28T15:26:50;6.50;99.90
11894;DHT22;6006;49.696;8.662;2023-02-28T15:29:21;6.20;99.90
11894;DHT22;6006;49.696;8.662;2023-02-28T15:31:50;6.30;99.90
11894;DHT22;6006;49.696;8.662;2023-02-28T15:34:21;6.20;99.90
11894;DHT22;6006;49.696;8.662;2023-02-28T15:36:48;6.20;99.90
11894;DHT22;6006;49.696;8.662;2023-02-28T15:39:20;6.20;99.90
11894;DHT22;6006;49.696;8.662;2023-02-28T15:41:47;6.10;99.90
11894;DHT22;6006;49.696;8.662;2023-02-28T15:44:24;6.00;99.90
11894;DHT22;6006;49.696;8.662;2023-02-28T15:46:59;6.10;99.90
11894;DHT22;6006;49.696;8.662;2023-02-28T15:49:32;6.00;99.90
11894;DHT22;6006;49.696;8.662;2023-02-28T15:52:01;5.90;99.90
11894;DHT22;6006;49.696;8.662;2023-02-28T15:54:29;5.70;99.90
11894;DHT22;6006;49.696;8.662;2023-02-28T15:56:59;5.60;99.90
11894;DHT22;6006;49.696;8.662;2023-02-28T15:59:29;5.60;99.90
11894;DHT22;6006;49.696;8.662;2023-02-28T16:02:18;5.60;99.90
11894;DHT22;6006;49.696;8.662;2023-02-28T16:04:59;5.60;99.90
11894;DHT22;6006;49.696;8.662;2023-02-28T16:07:26;5.50;99.90
11894;DHT22;6006;49.696;8.662;2023-02-28T16:09:53;5.40;99.90
11894;DHT22;6006;49.696;8.662;2023-02-28T16:12:24;5.40;99.90
11894;DHT22;6006;49.696;8.662;2023-02-28T16:14:52;5.40;99.90
11894;DHT22;6006;49.696;8.662;2023-02-28T16:17:21;5.40;99.90
11894;DHT22;6006;49.696;8.662;2023-02-28T16:19:48;5.40;99.90
11894;DHT22;6006;49.696;8.662;2023-02-28T16:22:17;5.40;99.90
11894;DHT22;6006;49.696;8.662;2023-02-28T16:24:44;5.40;99.90
11894;DHT22;6006;49.696;8.662;2023-02-28T16:27:17;5.40;99.90
11894;DHT22;6006;49.696;8.662;2023-02-28T16:29:45;5.40;99.90
11894;DHT22;6006;49.696;8.662;2023-02-28T16:32:14;5.40;99.90
11894;DHT22;6006;49.696;8.662;2023-02-28T16:34:42;5.30;99.90
11894;DHT22;6006;49.696;8.662;2023-02-28T16:37:12;5.20;99.90
11894;DHT22;6006;49.696;8.662;2023-02-28T16:39:41;5.20;99.90
11894;DHT22;6006;49.696;8.662;2023-02-28T16:42:14;5.10;99.90